Time;durP1;ratioP1;P1;durP2;ratioP2;P2;SDS_P1;SDS_P2;PMS_P1;PMS_P2;Temp;Humidity;BMP_temperature;BMP_pressure;BME280_temperature;BME280_humidity;BME280_pressure;Samples;Min_cycle;Max_cycle;Signal;HPM_P1;HPM_P2
2022/05/09 00:00:01;;;;;;;;;;;;;;;20.17;69.44;97467.62;627028;226;65889;-71
2022/05/09 00:02:30;;;;;;;;;;;;;;;20.16;69.51;97463.36;626909;225;42447;-72
2022/05/09 00:04:58;;;;;;;;;;;;;;;20.16;69.47;97471.37;627031;226;62660;-72
2022/05/09 00:07:25;;;;;;;;;;;;;;;20.17;69.46;97461.49;627048;226;62927;-71
2022/05/09 00:09:53;;;;;;;;;;;;;;;20.16;69.26;97460.69;627011;226;62549;-77
2022/05/09 00:12:20;;;;;;;;;;;;;;;20.18;69.29;97469.23;627020;226;65960;-77
2022/05/09 00:14:48;;;;;;;;;;;;;;;20.16;69.78;97465.20;627069;226;63005;-77
2022/05/09 00:17:15;;;;;;;;;;;;;;;20.16;69.56;97459.86;626998;226;63035;-72
2022/05/09 00:19:43;;;;;;;;;;;;;;;20.15;69.37;97464.41;627042;226;62576;-77
2022/05/09 00:22:11;;;;;;;;;;;;;;;20.16;69.21;97459.86;627038;226;65897;-72
2022/05/09 00:24:38;;;;;;;;;;;;;;;20.15;69.14;97461.73;627034;226;64906;-72
2022/05/09 00:27:06;;;;;;;;;;;;;;;20.15;69.14;97463.60;627094;226;64759;-72
2022/05/09 00:29:34;;;;;;;;;;;;;;;20.14;69.19;97462.80;627036;226;65174;-72
2022/05/09 00:32:01;;;;;;;;;;;;;;;20.14;68.90;97460.14;627079;226;62983;-72
2022/05/09 00:34:29;;;;;;;;;;;;;;;20.15;69.33;97458.27;627023;226;64763;-72
2022/05/09 00:36:57;;;;;;;;;;;;;;;20.14;68.81;97457.47;627005;226;65100;-72
2022/05/09 00:39:24;;;;;;;;;;;;;;;20.15;69.02;97464.41;627069;226;62758;-72
2022/05/09 00:41:52;;;;;;;;;;;;;;;20.14;68.96;97462.80;627027;226;62740;-72
2022/05/09 00:44:21;;;;;;;;;;;;;;;20.14;69.08;97456.67;627077;226;63204;-72
2022/05/09 00:46:51;;;;;;;;;;;;;;;20.14;69.38;97454.80;627011;226;64971;-72
2022/05/09 00:49:20;;;;;;;;;;;;;;;20.14;69.25;97462.00;627047;226;62885;-77
2022/05/09 00:51:49;;;;;;;;;;;;;;;20.14;69.81;97457.47;627039;226;64066;-77
2022/05/09 00:54:18;;;;;;;;;;;;;;;20.13;69.34;97455.04;626968;225;65628;-77
2022/05/09 00:56:46;;;;;;;;;;;;;;;20.13;69.38;97453.20;627002;226;64713;-77
2022/05/09 00:59:15;;;;;;;;;;;;;;;20.13;68.97;97457.70;626935;225;62965;-77
2022/05/09 01:01:44;;;;;;;;;;;;;;;20.12;69.24;97462.24;626933;225;63091;-77
2022/05/09 01:04:15;;;;;;;;;;;;;;;20.12;68.95;97456.91;626947;226;65975;-77
2022/05/09 01:06:43;;;;;;;;;;;;;;;20.12;69.28;97459.58;627061;226;66220;-77
2022/05/09 01:09:11;;;;;;;;;;;;;;;20.13;69.98;97458.53;627021;226;63199;-71
2022/05/09 01:11:40;;;;;;;;;;;;;;;20.12;69.62;97467.58;627046;226;65059;-72
2022/05/09 01:14:09;;;;;;;;;;;;;;;20.13;69.38;97466.55;627054;226;65099;-72
2022/05/09 01:16:38;;;;;;;;;;;;;;;20.13;69.33;97468.38;627079;226;62956;-72
2022/05/09 01:19:25;;;;;;;;;;;;;;;20.12;69.03;97464.91;627026;226;62798;-71
2022/05/09 01:21:52;;;;;;;;;;;;;;;20.11;69.31;97468.65;627106;226;65458;-70
2022/05/09 01:24:21;;;;;;;;;;;;;;;20.11;69.35;97470.52;627010;226;65024;-70
2022/05/09 01:26:49;;;;;;;;;;;;;;;20.10;69.45;97467.02;627097;226;62826;-70
2022/05/09 01:29:18;;;;;;;;;;;;;;;20.11;69.16;97460.65;627043;226;63344;-70
2022/05/09 01:31:46;;;;;;;;;;;;;;;20.11;69.65;97460.65;626489;226;63371;-70
2022/05/09 01:34:15;;;;;;;;;;;;;;;20.10;69.49;97459.02;627105;226;63122;-71
2022/05/09 01:36:44;;;;;;;;;;;;;;;20.11;69.13;97460.65;627089;226;63029;-72
2022/05/09 01:39:12;;;;;;;;;;;;;;;20.11;69.21;97463.31;626997;226;65361;-72
2022/05/09 01:41:42;;;;;;;;;;;;;;;20.10;69.02;97468.89;626957;226;65506;-72
2022/05/09 01:44:10;;;;;;;;;;;;;;;20.10;69.28;97467.02;626835;225;65495;-72
2022/05/09 01:49:29;;;;;;;;;;;;;;;20.10;69.42;97456.35;627024;226;65391;-72
2022/05/09 01:51:54;;;;;;;;;;;;;;;20.10;69.20;97466.22;627081;226;65455;-76
2022/05/09 01:54:21;;;;;;;;;;;;;;;20.10;68.69;97455.55;626996;226;65328;-76
2022/05/09 01:56:49;;;;;;;;;;;;;;;20.08;68.60;97453.16;627037;226;64968;-76
2022/05/09 01:59:16;;;;;;;;;;;;;;;20.09;69.52;97460.09;627079;226;65388;-76
2022/05/09 02:01:48;;;;;;;;;;;;;;;20.08;68.98;97453.16;627076;226;65442;-76
2022/05/09 02:04:17;;;;;;;;;;;;;;;20.09;69.03;97460.09;627139;226;47814;-76
2022/05/09 02:06:45;;;;;;;;;;;;;;;20.09;69.13;97467.30;627061;226;65478;-76
2022/05/09 02:09:13;;;;;;;;;;;;;;;20.07;69.32;97454.19;627068;226;65430;-76
2022/05/09 02:11:40;;;;;;;;;;;;;;;20.08;69.22;97460.33;627084;226;64878;-76
2022/05/09 02:14:08;;;;;;;;;;;;;;;20.07;68.89;97462.20;627101;226;63850;-75
2022/05/09 02:16:37;;;;;;;;;;;;;;;20.08;69.17;97463.00;627017;226;62997;-71
2022/05/09 02:19:06;;;;;;;;;;;;;;;20.08;68.75;97461.16;627070;226;65586;-70
2022/05/09 02:21:34;;;;;;;;;;;;;;;20.08;69.17;97465.66;627052;226;64529;-71
2022/05/09 02:24:02;;;;;;;;;;;;;;;20.07;69.38;97469.41;627044;226;63062;-71
2022/05/09 02:26:30;;;;;;;;;;;;;;;20.08;69.37;97471.83;627085;226;65176;-71
2022/05/09 02:28:57;;;;;;;;;;;;;;;20.08;69.37;97471.00;627008;226;65497;-71
2022/05/09 02:31:26;;;;;;;;;;;;;;;20.07;68.97;97475.53;627001;226;65493;-71
2022/05/09 02:33:53;;;;;;;;;;;;;;;20.07;69.08;97470.20;626987;226;65028;-71
2022/05/09 02:36:21;;;;;;;;;;;;;;;20.07;69.33;97472.88;627036;226;65095;-71
2022/05/09 02:38:48;;;;;;;;;;;;;;;20.08;69.51;97476.34;627021;226;62703;-71
2022/05/09 02:41:16;;;;;;;;;;;;;;;20.07;70.08;97472.07;627057;226;62958;-71
2022/05/09 02:43:43;;;;;;;;;;;;;;;20.07;70.08;97474.73;626943;226;62974;-70
2022/05/09 02:46:11;;;;;;;;;;;;;;;20.08;69.59;97476.34;626996;226;63209;-71
2022/05/09 02:48:40;;;;;;;;;;;;;;;20.07;69.63;97480.88;627033;226;65708;-70
2022/05/09 02:51:09;;;;;;;;;;;;;;;20.07;69.09;97477.41;626994;226;63010;-71
2022/05/09 02:53:36;;;;;;;;;;;;;;;20.06;68.85;97473.94;627059;226;63000;-71
2022/05/09 02:56:05;;;;;;;;;;;;;;;20.06;68.53;97473.14;626999;226;65025;-70
2022/05/09 02:58:33;;;;;;;;;;;;;;;20.05;68.68;97475.01;627019;226;65558;-71
2022/05/09 03:01:00;;;;;;;;;;;;;;;20.06;69.33;97475.81;626987;226;63940;-70
2022/05/09 03:06:13;;;;;;;;;;;;;;;20.06;69.44;97479.28;626998;226;65152;-70
2022/05/09 03:08:41;;;;;;;;;;;;;;;20.04;69.38;97476.05;627037;226;63118;-71
2022/05/09 03:11:08;;;;;;;;;;;;;;;20.04;69.09;97480.58;627011;226;62907;-71
2022/05/09 03:13:36;;;;;;;;;;;;;;;20.05;69.33;97475.01;626978;226;62950;-71
2022/05/09 03:16:04;;;;;;;;;;;;;;;20.04;68.94;97480.58;627016;226;65516;-76
2022/05/09 03:18:32;;;;;;;;;;;;;;;20.04;69.37;97480.58;627037;226;62899;-76
2022/05/09 03:21:01;;;;;;;;;;;;;;;20.04;69.03;97484.05;627041;226;65299;-76
2022/05/09 03:23:29;;;;;;;;;;;;;;;20.03;69.13;97492.33;626998;226;63382;-76
2022/05/09 03:25:56;;;;;;;;;;;;;;;20.04;69.05;97488.59;627008;226;62646;-76
2022/05/09 03:28:26;;;;;;;;;;;;;;;20.03;68.86;97487.79;626986;225;46915;-76
2022/05/09 03:30:56;;;;;;;;;;;;;;;20.04;69.26;97493.92;627006;226;63197;-76
2022/05/09 03:33:26;;;;;;;;;;;;;;;20.03;68.68;97495.80;627049;226;65635;-76
2022/05/09 03:35:53;;;;;;;;;;;;;;;20.03;69.05;97492.33;626989;225;65361;-76
2022/05/09 03:38:21;;;;;;;;;;;;;;;20.02;68.85;97494.16;626972;226;65505;-76
2022/05/09 03:40:49;;;;;;;;;;;;;;;20.04;68.82;97504.59;627041;226;65509;-76
2022/05/09 03:43:16;;;;;;;;;;;;;;;20.02;69.16;97496.03;625223;226;65034;-76
2022/05/09 03:45:46;;;;;;;;;;;;;;;20.03;69.74;97497.66;624811;227;63050;-76
2022/05/09 03:48:13;;;;;;;;;;;;;;;20.02;69.20;97493.36;624823;227;64809;-76
2022/05/09 03:50:41;;;;;;;;;;;;;;;20.02;69.42;97499.50;624762;227;65334;-76
2022/05/09 03:53:08;;;;;;;;;;;;;;;20.02;69.48;97507.50;624723;225;64632;-76
2022/05/09 03:55:36;;;;;;;;;;;;;;;20.02;69.03;97512.84;624784;227;64728;-76
2022/05/09 03:58:03;;;;;;;;;;;;;;;20.03;69.54;97516.34;624737;227;65266;-76
2022/05/09 04:00:33;;;;;;;;;;;;;;;20.02;69.37;97514.70;624812;227;63005;-76
2022/05/09 04:03:01;;;;;;;;;;;;;;;20.01;69.04;97524.58;624718;227;65063;-76
2022/05/09 04:05:35;;;;;;;;;;;;;;;20.01;68.94;97511.24;624740;227;65451;-76
2022/05/09 04:08:00;;;;;;;;;;;;;;;20.00;68.87;97516.81;624518;225;67327;-76
2022/05/09 04:10:29;;;;;;;;;;;;;;;20.01;68.89;97519.24;624742;227;64690;-76
2022/05/09 04:12:57;;;;;;;;;;;;;;;20.01;69.03;97521.11;624798;227;65502;-76
2022/05/09 04:18:10;;;;;;;;;;;;;;;20.01;69.77;97524.58;624708;227;65324;-76
2022/05/09 04:20:38;;;;;;;;;;;;;;;20.00;69.95;97520.31;624740;227;65081;-76
2022/05/09 04:23:06;;;;;;;;;;;;;;;20.00;69.54;97525.65;624656;227;65506;-76
2022/05/09 04:25:34;;;;;;;;;;;;;;;19.98;69.17;97517.08;624760;227;62912;-76
2022/05/09 04:28:02;;;;;;;;;;;;;;;19.99;69.56;97521.35;624782;227;62982;-77
2022/05/09 04:30:30;;;;;;;;;;;;;;;19.99;69.19;97521.35;624711;227;63084;-75
2022/05/09 04:32:58;;;;;;;;;;;;;;;19.99;69.53;97524.02;624710;227;65232;-75
2022/05/09 04:35:25;;;;;;;;;;;;;;;19.99;69.56;97521.35;624748;227;63302;-75
2022/05/09 04:37:54;;;;;;;;;;;;;;;19.99;70.11;97524.02;624713;227;65412;-75
2022/05/09 04:40:23;;;;;;;;;;;;;;;19.99;69.63;97524.02;624823;227;62671;-75
2022/05/09 04:42:51;;;;;;;;;;;;;;;19.99;70.14;97524.02;624692;226;65466;-75
2022/05/09 04:45:19;;;;;;;;;;;;;;;19.98;69.80;97525.09;624724;227;65595;-75
2022/05/09 04:47:49;;;;;;;;;;;;;;;19.98;69.65;97522.42;624735;227;65607;-75
2022/05/09 04:50:16;;;;;;;;;;;;;;;19.99;69.86;97528.55;624742;225;65394;-75
2022/05/09 04:52:44;;;;;;;;;;;;;;;19.97;69.32;97531.49;624819;227;65523;-74
2022/05/09 04:55:12;;;;;;;;;;;;;;;19.97;69.31;97526.16;624767;225;65087;-75
2022/05/09 04:57:40;;;;;;;;;;;;;;;19.98;69.40;97529.63;624711;227;65455;-75
2022/05/09 05:00:09;;;;;;;;;;;;;;;19.99;70.64;97532.02;624783;227;62998;-75
2022/05/09 05:02:36;;;;;;;;;;;;;;;19.96;70.41;97521.86;624749;227;62919;-75
2022/05/09 05:05:05;;;;;;;;;;;;;;;19.96;69.94;97527.20;624766;225;62941;-75
2022/05/09 05:07:32;;;;;;;;;;;;;;;19.98;69.64;97529.63;624834;227;62723;-75
2022/05/09 05:09:59;;;;;;;;;;;;;;;19.97;69.42;97528.83;624722;227;62983;-75
2022/05/09 05:12:27;;;;;;;;;;;;;;;19.97;69.27;97528.83;624722;227;65121;-75
2022/05/09 05:14:54;;;;;;;;;;;;;;;19.97;70.18;97534.16;624757;227;65625;-75
2022/05/09 05:17:22;;;;;;;;;;;;;;;19.97;69.63;97534.16;624788;227;65038;-75
2022/05/09 05:19:49;;;;;;;;;;;;;;;19.97;69.28;97534.16;624801;227;65199;-75
2022/05/09 05:22:17;;;;;;;;;;;;;;;19.96;69.55;97538.66;624716;227;63084;-75
2022/05/09 05:24:45;;;;;;;;;;;;;;;19.97;69.59;97536.83;624729;227;62991;-75
2022/05/09 05:27:13;;;;;;;;;;;;;;;19.97;69.63;97542.16;624775;227;65350;-75
2022/05/09 05:29:44;;;;;;;;;;;;;;;19.97;69.35;97542.16;624746;227;65539;-75
2022/05/09 05:32:15;;;;;;;;;;;;;;;19.96;69.21;97540.53;624808;224;66085;-76
2022/05/09 05:34:43;;;;;;;;;;;;;;;19.96;69.08;97543.20;624732;227;63038;-76
2022/05/09 05:37:10;;;;;;;;;;;;;;;19.95;69.37;97536.27;624699;227;65425;-76
2022/05/09 05:39:40;;;;;;;;;;;;;;;19.96;69.46;97543.20;624746;227;64954;-76
2022/05/09 05:42:07;;;;;;;;;;;;;;;19.94;69.23;97540.80;625352;226;65441;-76
2022/05/09 05:44:37;;;;;;;;;;;;;;;19.95;69.20;97541.59;627033;226;63058;-75
2022/05/09 05:47:05;;;;;;;;;;;;;;;19.94;69.43;97532.80;627061;226;65161;-75
2022/05/09 05:49:33;;;;;;;;;;;;;;;19.94;69.59;97542.64;627027;226;65555;-75
2022/05/09 05:52:03;;;;;;;;;;;;;;;19.94;69.79;97538.13;627011;226;65475;-75
2022/05/09 05:54:31;;;;;;;;;;;;;;;19.94;69.63;97542.64;626889;225;64770;-77
2022/05/09 05:56:59;;;;;;;;;;;;;;;19.94;68.59;97543.47;623628;226;63147;-74
2022/05/09 05:59:26;;;;;;;;;;;;;;;19.95;70.37;97538.93;619245;226;63189;-74
2022/05/09 06:01:55;;;;;;;;;;;;;;;19.94;70.89;97539.97;620231;226;63994;-75
2022/05/09 06:04:24;;;;;;;;;;;;;;;19.93;70.33;97546.37;626772;226;66360;-75
2022/05/09 06:06:52;;;;;;;;;;;;;;;19.94;70.47;97538.13;626827;226;65446;-74
2022/05/09 06:09:19;;;;;;;;;;;;;;;19.93;70.85;97541.84;626959;226;65232;-73
2022/05/09 06:11:47;;;;;;;;;;;;;;;19.93;70.84;97541.84;626726;226;66574;-75
2022/05/09 06:14:14;;;;;;;;;;;;;;;19.93;70.26;97539.17;626891;226;65435;-74
2022/05/09 06:16:43;;;;;;;;;;;;;;;19.93;69.70;97541.84;626951;226;65319;-75
2022/05/09 06:19:11;;;;;;;;;;;;;;;19.96;69.84;97544.00;626964;226;63080;-77
2022/05/09 06:21:38;;;;;;;;;;;;;;;19.97;69.45;97542.16;626928;226;62699;-74
2022/05/09 06:24:07;;;;;;;;;;;;;;;19.96;69.37;97540.53;627022;226;65003;-77
2022/05/09 06:26:37;;;;;;;;;;;;;;;19.97;69.23;97544.83;626970;226;65372;-73
2022/05/09 06:29:06;;;;;;;;;;;;;;;19.98;69.35;97538.42;626892;226;65718;-76
2022/05/09 06:31:34;;;;;;;;;;;;;;;19.98;69.36;97543.76;626983;226;64768;-73
2022/05/09 06:34:03;;;;;;;;;;;;;;;19.98;69.26;97537.63;622245;226;63269;-74
2022/05/09 06:36:37;;;;;;;;;;;;;;;19.99;69.25;97541.89;619737;229;63372;-74
2022/05/09 06:39:06;;;;;;;;;;;;;;;19.99;69.36;97540.03;619836;229;63260;-72
2022/05/09 06:41:34;;;;;;;;;;;;;;;20.00;69.24;97540.83;619730;229;65122;-74
2022/05/09 06:44:01;;;;;;;;;;;;;;;19.99;69.48;97534.69;619625;229;66378;-75
2022/05/09 06:46:28;;;;;;;;;;;;;;;20.00;69.03;97536.32;619754;229;63055;-75
2022/05/09 06:48:56;;;;;;;;;;;;;;;19.99;69.41;97540.03;619799;229;65113;-75
2022/05/09 06:51:23;;;;;;;;;;;;;;;19.99;69.80;97537.36;619779;229;65522;-75
2022/05/09 06:53:52;;;;;;;;;;;;;;;19.99;70.77;97540.03;619698;229;65112;-75
2022/05/09 06:56:19;;;;;;;;;;;;;;;20.00;70.77;97538.16;619660;229;65361;-76
2022/05/09 06:58:47;;;;;;;;;;;;;;;20.00;70.78;97538.16;619744;229;65539;-76
2022/05/09 07:01:15;;;;;;;;;;;;;;;20.00;70.88;97538.16;619648;229;65298;-75
2022/05/09 07:03:43;;;;;;;;;;;;;;;20.00;69.99;97538.16;619728;229;63021;-76
2022/05/09 07:06:11;;;;;;;;;;;;;;;19.99;70.07;97540.03;619827;229;63111;-76
2022/05/09 07:08:39;;;;;;;;;;;;;;;19.99;69.08;97545.36;619784;229;62688;-71
2022/05/09 07:11:06;;;;;;;;;;;;;;;19.98;69.56;97535.76;619744;229;65236;-73
2022/05/09 07:13:34;;;;;;;;;;;;;;;19.99;69.19;97542.69;622227;226;65518;-70
2022/05/09 07:16:03;;;;;;;;;;;;;;;19.99;69.15;97540.03;626811;226;63250;-71
2022/05/09 07:18:32;;;;;;;;;;;;;;;20.00;68.95;97546.99;626073;226;42835;-72
2022/05/09 07:21:00;;;;;;;;;;;;;;;20.01;69.47;97537.92;626930;226;65548;-69
2022/05/09 07:23:27;;;;;;;;;;;;;;;20.00;68.92;97544.33;626905;226;65312;-70
2022/05/09 07:25:55;;;;;;;;;;;;;;;20.01;69.12;97542.45;626910;226;65376;-71
2022/05/09 07:28:23;;;;;;;;;;;;;;;20.02;69.08;97544.86;626911;226;63036;-70
2022/05/09 07:30:51;;;;;;;;;;;;;;;20.03;69.71;97551.02;626995;226;65355;-70
2022/05/09 07:33:19;;;;;;;;;;;;;;;20.02;69.22;97555.53;626889;226;65164;-70
2022/05/09 07:35:47;;;;;;;;;;;;;;;20.03;69.96;97546.48;626878;226;62698;-69
2022/05/09 07:38:14;;;;;;;;;;;;;;;20.04;69.80;97550.75;626770;226;63471;-69
2022/05/09 07:40:43;;;;;;;;;;;;;;;20.03;68.99;97546.48;626818;226;65175;-69
2022/05/09 07:43:14;;;;;;;;;;;;;;;20.05;69.43;97546.22;625295;226;63153;-72
2022/05/09 07:45:45;;;;;;;;;;;;;;;20.04;69.14;97542.75;624709;227;66220;-73
2022/05/09 07:48:13;;;;;;;;;;;;;;;20.05;69.15;97544.38;624541;225;65470;-68
2022/05/09 07:50:41;;;;;;;;;;;;;;;20.07;66.99;97547.58;624670;227;63250;-69
2022/05/09 07:53:10;;;;;;;;;;;;;;;20.08;68.80;97549.20;623881;227;65027;-69
2022/05/09 07:55:39;;;;;;;;;;;;;;;20.08;68.59;97543.88;624600;227;65128;-70
2022/05/09 07:58:09;;;;;;;;;;;;;;;20.09;69.15;97550.81;624705;225;42772;-69
2022/05/09 08:00:38;;;;;;;;;;;;;;;20.08;68.84;97551.88;624501;227;62681;-71
2022/05/09 08:03:09;;;;;;;;;;;;;;;20.09;68.85;97547.34;624691;226;46569;-71
2022/05/09 08:05:37;;;;;;;;;;;;;;;20.11;67.70;97550.57;624416;226;65427;-72
2022/05/09 08:08:04;;;;;;;;;;;;;;;20.12;65.59;97544.97;624387;227;64913;-67
2022/05/09 08:10:32;;;;;;;;;;;;;;;20.13;64.28;97551.10;624628;227;65258;-68
2022/05/09 08:12:59;;;;;;;;;;;;;;;20.14;67.03;97544.72;624727;227;64944;-68
2022/05/09 08:15:27;;;;;;;;;;;;;;;20.13;68.84;97553.77;624616;227;64804;-68
2022/05/09 08:17:54;;;;;;;;;;;;;;;20.13;69.00;97559.11;624737;227;62953;-68
2022/05/09 08:20:23;;;;;;;;;;;;;;;20.11;68.14;97556.70;624726;227;64949;-68
2022/05/09 08:23:06;;;;;;;;;;;;;;;20.13;68.54;97554.59;624687;227;64960;-69
2022/05/09 08:25:36;;;;;;;;;;;;;;;20.14;68.89;97555.40;624700;227;62826;-68
2022/05/09 08:28:03;;;;;;;;;;;;;;;20.13;68.42;97551.10;624700;227;65596;-68
2022/05/09 08:30:37;;;;;;;;;;;;;;;20.15;68.87;97557.00;624567;227;65711;-69
2022/05/09 08:33:03;;;;;;;;;;;;;;;20.13;67.82;97554.59;624534;225;65666;-69
2022/05/09 08:35:31;;;;;;;;;;;;;;;20.15;69.22;97560.47;624763;227;63063;-68
2022/05/09 08:37:58;;;;;;;;;;;;;;;20.15;68.35;97555.13;624637;227;62916;-68
2022/05/09 08:40:30;;;;;;;;;;;;;;;20.16;68.35;97554.09;624528;227;62915;-68
2022/05/09 08:42:59;;;;;;;;;;;;;;;20.16;68.42;97559.42;626044;225;63019;-69
2022/05/09 08:45:31;;;;;;;;;;;;;;;20.17;68.74;97552.22;626672;225;62986;-69
2022/05/09 08:48:03;;;;;;;;;;;;;;;20.17;68.80;97555.69;626993;226;65428;-70
2022/05/09 08:50:44;;;;;;;;;;;;;;;20.18;68.80;97551.16;626940;226;62744;-71
2022/05/09 08:53:13;;;;;;;;;;;;;;;20.19;67.33;97555.45;626726;225;65280;-70
2022/05/09 08:55:42;;;;;;;;;;;;;;;20.21;68.07;97552.52;626895;226;66254;-69
2022/05/09 08:58:16;;;;;;;;;;;;;;;20.23;66.99;97553.08;626868;226;64300;-70
2022/05/09 09:00:43;;;;;;;;;;;;;;;20.23;66.98;97550.41;626884;226;62967;-70
2022/05/09 09:03:15;;;;;;;;;;;;;;;20.25;66.01;97556.30;626958;226;63795;-69
2022/05/09 09:05:47;;;;;;;;;;;;;;;20.26;67.09;97550.70;626838;225;65197;-70
2022/05/09 09:08:25;;;;;;;;;;;;;;;20.26;68.06;97556.03;626929;226;65453;-70
2022/05/09 09:11:10;;;;;;;;;;;;;;;20.25;66.67;97549.09;626737;226;66373;-74
2022/05/09 09:13:43;;;;;;;;;;;;;;;20.27;67.77;97551.50;626746;226;64837;-69
2022/05/09 09:16:20;;;;;;;;;;;;;;;20.27;68.32;97555.00;626804;226;66899;-69
2022/05/09 09:18:56;;;;;;;;;;;;;;;20.27;67.06;97557.66;625959;224;63284;-69
2022/05/09 09:21:25;;;;;;;;;;;;;;;20.28;67.38;97547.79;623037;226;67251;-75
2022/05/09 09:24:10;;;;;;;;;;;;;;;20.30;66.66;97551.02;619979;225;66809;-77
2022/05/09 09:26:49;;;;;;;;;;;;;;;20.30;66.18;97551.02;626734;226;63265;-75
2022/05/09 09:29:21;;;;;;;;;;;;;;;20.31;66.92;97552.62;626824;226;67208;-72
2022/05/09 09:31:50;;;;;;;;;;;;;;;20.31;68.28;97548.08;626567;225;66871;-72
2022/05/09 09:34:31;;;;;;;;;;;;;;;20.31;68.21;97544.61;626712;226;65086;-71
2022/05/09 09:37:15;;;;;;;;;;;;;;;20.31;67.61;97548.08;626718;226;67054;-72
2022/05/09 09:39:43;;;;;;;;;;;;;;;20.31;67.13;97545.41;626748;225;66664;-68
2022/05/09 09:42:10;;;;;;;;;;;;;;;20.31;68.09;97542.73;626772;226;63346;-75
2022/05/09 09:44:39;;;;;;;;;;;;;;;20.32;66.73;97544.34;626719;226;67382;-75
2022/05/09 09:47:09;;;;;;;;;;;;;;;20.33;67.51;97545.97;626633;225;65136;-75
2022/05/09 09:49:38;;;;;;;;;;;;;;;20.34;67.02;97541.43;626746;225;63215;-74
2022/05/09 09:52:23;;;;;;;;;;;;;;;20.34;66.79;97528.88;626818;226;67122;-74
2022/05/09 09:54:58;;;;;;;;;;;;;;;20.34;66.57;97536.89;626746;226;66884;-74
2022/05/09 09:57:32;;;;;;;;;;;;;;;20.35;66.16;97529.68;625556;225;63001;-76
2022/05/09 10:00:00;;;;;;;;;;;;;;;20.36;66.49;97528.64;626133;226;66935;-75
2022/05/09 10:02:34;;;;;;;;;;;;;;;20.37;66.94;97524.91;626054;225;66895;-75
2022/05/09 10:05:02;;;;;;;;;;;;;;;20.36;66.31;97528.64;621040;226;44034;-75
2022/05/09 10:07:31;;;;;;;;;;;;;;;20.37;65.66;97530.24;619323;228;64447;-74
2022/05/09 10:10:07;;;;;;;;;;;;;;;20.37;66.11;97531.04;619292;228;64621;-75
2022/05/09 10:12:35;;;;;;;;;;;;;;;20.38;66.09;97521.19;619568;229;63214;-76
2022/05/09 10:15:04;;;;;;;;;;;;;;;20.37;64.09;97524.91;619544;229;67435;-76
2022/05/09 10:17:33;;;;;;;;;;;;;;;20.39;65.83;97518.25;619149;228;64604;-77
2022/05/09 10:20:01;;;;;;;;;;;;;;;20.40;66.92;97513.71;619680;229;65045;-74
2022/05/09 10:25:18;;;;;;;;;;;;;;;20.40;66.55;97517.18;619658;229;64896;-75
2022/05/09 10:27:47;;;;;;;;;;;;;;;20.41;67.40;97507.33;619520;228;65351;-74
2022/05/09 10:30:19;;;;;;;;;;;;;;;20.40;66.33;97514.52;619616;229;64857;-73
2022/05/09 10:32:54;;;;;;;;;;;;;;;20.41;67.12;97515.34;619653;229;66773;-74
2022/05/09 10:35:24;;;;;;;;;;;;;;;20.43;65.96;97512.40;619647;229;63893;-73
2022/05/09 10:38:02;;;;;;;;;;;;;;;20.43;66.00;97517.73;619564;229;67079;-72
2022/05/09 10:40:42;;;;;;;;;;;;;;;20.45;63.73;97511.09;619654;229;67070;-72
2022/05/09 10:43:10;;;;;;;;;;;;;;;20.46;64.73;97517.23;619573;229;65131;-72
2022/05/09 10:45:43;;;;;;;;;;;;;;;20.46;66.40;97511.89;619511;229;67124;-72
2022/05/09 10:48:11;;;;;;;;;;;;;;;20.46;67.56;97520.73;619672;226;64753;-73
2022/05/09 10:50:43;;;;;;;;;;;;;;;20.46;64.89;97501.20;620610;225;65909;-72
2022/05/09 10:53:15;;;;;;;;;;;;;;;20.46;65.29;97496.70;623191;225;64528;-73
2022/05/09 10:55:47;;;;;;;;;;;;;;;20.47;66.01;97503.64;626423;226;66614;-73
2022/05/09 10:58:19;;;;;;;;;;;;;;;20.47;65.36;97495.63;626698;225;63071;-73
2022/05/09 11:00:48;;;;;;;;;;;;;;;20.48;64.17;97499.89;626630;225;64980;-73
2022/05/09 11:03:22;;;;;;;;;;;;;;;20.48;64.91;97488.41;626814;226;65185;-73
2022/05/09 11:06:11;;;;;;;;;;;;;;;20.49;65.12;97496.19;626741;226;68067;-73
2022/05/09 11:08:43;;;;;;;;;;;;;;;20.49;65.74;97496.19;623546;226;67013;-73
2022/05/09 11:11:12;;;;;;;;;;;;;;;20.51;65.27;97493.23;621044;226;64906;-73
2022/05/09 11:13:41;;;;;;;;;;;;;;;20.51;64.71;97493.23;619486;228;62962;-73
2022/05/09 11:16:16;;;;;;;;;;;;;;;20.52;65.08;97505.55;619624;229;64849;-73
2022/05/09 11:19:04;;;;;;;;;;;;;;;20.53;65.13;97505.30;619507;228;64494;-73
2022/05/09 11:21:33;;;;;;;;;;;;;;;20.53;65.23;97494.63;619559;228;65421;-72
2022/05/09 11:24:17;;;;;;;;;;;;;;;20.54;65.08;97503.44;619699;229;66530;-74
2022/05/09 11:26:58;;;;;;;;;;;;;;;20.54;64.27;97498.09;619634;229;66879;-71
2022/05/09 11:29:30;;;;;;;;;;;;;;;20.55;65.22;97489.84;619511;228;46510;-71
2022/05/09 11:32:05;;;;;;;;;;;;;;;20.56;66.02;97495.98;617928;229;67279;-71
2022/05/09 11:34:37;;;;;;;;;;;;;;;20.55;64.68;97500.52;619447;228;66911;-71
2022/05/09 11:37:25;;;;;;;;;;;;;;;20.56;65.39;97499.45;619626;228;65366;-69
2022/05/09 11:39:57;;;;;;;;;;;;;;;20.57;64.16;97490.40;618925;229;64874;-70
2022/05/09 11:45:28;;;;;;;;;;;;;;;20.58;64.69;97488.53;617472;230;63089;-71
2022/05/09 11:47:57;;;;;;;;;;;;;;;20.59;64.90;97485.58;617303;228;67198;-71
2022/05/09 11:50:43;;;;;;;;;;;;;;;20.58;64.40;97481.31;617247;228;66901;-72
2022/05/09 11:53:11;;;;;;;;;;;;;;;20.59;63.99;97471.44;617484;230;65363;-71
2022/05/09 11:55:41;;;;;;;;;;;;;;;20.60;64.22;97481.07;617370;230;64870;-71
2022/05/09 11:58:08;;;;;;;;;;;;;;;20.60;65.17;97481.88;617427;230;67130;-71
2022/05/09 12:00:38;;;;;;;;;;;;;;;20.60;63.48;97473.86;617300;230;65337;-71
2022/05/09 12:03:07;;;;;;;;;;;;;;;20.63;64.05;97474.41;617377;230;67178;-69
2022/05/09 12:05:37;;;;;;;;;;;;;;;20.63;63.07;97469.87;617436;230;66850;-69
2022/05/09 12:08:24;;;;;;;;;;;;;;;20.64;64.23;97470.67;617484;230;65384;-69
2022/05/09 12:10:54;;;;;;;;;;;;;;;20.64;63.82;97468.00;617058;228;67552;-70
2022/05/09 12:13:24;;;;;;;;;;;;;;;20.65;63.11;97461.59;608465;228;64065;-69
2022/05/09 12:15:53;;;;;;;;;;;;;;;20.66;64.28;97460.55;617448;230;62934;-71
2022/05/09 12:18:22;;;;;;;;;;;;;;;20.65;63.15;97459.72;617328;230;64518;-73
2022/05/09 12:20:53;;;;;;;;;;;;;;;20.67;63.01;97451.46;617224;228;64802;-71
2022/05/09 12:23:38;;;;;;;;;;;;;;;20.67;64.40;97454.92;617465;230;65387;-72
2022/05/09 12:26:06;;;;;;;;;;;;;;;20.68;63.64;97447.72;617384;230;65434;-69
2022/05/09 12:28:39;;;;;;;;;;;;;;;20.68;64.24;97448.55;617360;228;48228;-69
2022/05/09 12:31:08;;;;;;;;;;;;;;;20.69;62.13;97444.00;617441;230;65085;-70
2022/05/09 12:33:47;;;;;;;;;;;;;;;20.71;62.20;97440.02;613215;230;66809;-71
2022/05/09 12:36:18;;;;;;;;;;;;;;;20.72;62.08;97444.28;617207;228;64750;-71
2022/05/09 12:38:47;;;;;;;;;;;;;;;20.73;62.15;97450.42;616910;230;65217;-71
2022/05/09 12:41:16;;;;;;;;;;;;;;;20.73;61.21;97437.06;617417;230;64554;-71
2022/05/09 12:43:46;;;;;;;;;;;;;;;20.75;61.38;97440.29;617416;229;66893;-72
2022/05/09 12:46:33;;;;;;;;;;;;;;;20.75;61.85;97437.62;616972;228;65108;-72
2022/05/09 12:49:01;;;;;;;;;;;;;;;20.74;62.04;97439.48;617392;230;67916;-74
2022/05/09 12:51:30;;;;;;;;;;;;;;;20.77;61.88;97440.84;617410;230;66862;-75
2022/05/09 12:53:59;;;;;;;;;;;;;;;20.77;62.05;97438.17;617394;230;63050;-70
2022/05/09 12:56:28;;;;;;;;;;;;;;;20.78;62.10;97439.77;617370;230;64780;-71
2022/05/09 12:59:03;;;;;;;;;;;;;;;20.78;62.17;97429.08;617388;230;67014;-70
2022/05/09 13:01:31;;;;;;;;;;;;;;;20.79;62.40;97433.38;617323;229;63920;-67
2022/05/09 13:04:00;;;;;;;;;;;;;;;20.78;62.08;97429.88;617213;229;67210;-69
2022/05/09 13:06:38;;;;;;;;;;;;;;;20.79;62.41;97428.84;617408;230;66838;-71
2022/05/09 13:09:13;;;;;;;;;;;;;;;20.80;62.53;97433.11;617461;230;63273;-70
2022/05/09 13:11:41;;;;;;;;;;;;;;;20.80;62.60;97422.42;617152;228;64890;-70
2022/05/09 13:14:11;;;;;;;;;;;;;;;20.81;61.52;97426.69;617364;230;67141;-70